Time;durP1;ratioP1;P1;durP2;ratioP2;P2;SDS_P1;SDS_P2;PMS_P1;PMS_P2;Temp;Humidity;BMP_temperature;BMP_pressure;BME280_temperature;BME280_humidity;BME280_pressure;Samples;Min_cycle;Max_cycle;Signal;HPM_P1;HPM_P2
2022/01/07 00:00:44;;;;;;;9.95;5.30;;;;;;;2.95;100.00;101255.34;10097169;29;20061;-73
2022/01/07 00:05:44;;;;;;;11.27;5.18;;;;;;;2.94;100.00;101241.13;10098715;29;20055;-72
2022/01/07 00:10:45;;;;;;;6.45;3.70;;;;;;;3.05;100.00;101250.00;10097816;29;20044;-72
2022/01/07 00:15:45;;;;;;;4.97;4.43;;;;;;;3.02;100.00;101241.25;10083076;29;20112;-72
2022/01/07 00:20:46;;;;;;;5.97;5.38;;;;;;;2.95;100.00;101245.50;10096483;29;20066;-73
2022/01/07 00:25:46;;;;;;;8.02;6.07;;;;;;;2.98;100.00;101223.81;10096858;29;20041;-73
2022/01/07 00:30:47;;;;;;;9.65;5.00;;;;;;;3.08;100.00;101217.63;10097905;29;20108;-72
2022/01/07 00:35:47;;;;;;;7.55;4.70;;;;;;;3.05;100.00;101229.44;10081667;29;20117;-73
2022/01/07 00:40:48;;;;;;;5.22;4.72;;;;;;;3.09;100.00;101211.28;10098371;29;20064;-72
2022/01/07 00:45:48;;;;;;;11.45;5.30;;;;;;;3.19;100.00;101199.59;10097048;29;20100;-72
2022/01/07 00:50:49;;;;;;;8.95;5.75;;;;;;;3.13;100.00;101210.03;10096905;29;20124;-72
2022/01/07 00:55:49;;;;;;;17.05;5.85;;;;;;;3.12;100.00;101161.00;10080646;29;20053;-72
2022/01/07 01:00:50;;;;;;;6.05;4.60;;;;;;;3.07;100.00;101178.47;10079933;29;20474;-72
2022/01/07 01:05:50;;;;;;;12.60;5.93;;;;;;;3.11;100.00;101175.38;10082954;29;20044;-73
2022/01/07 01:10:51;;;;;;;11.65;3.75;;;;;;;3.06;100.00;101174.09;10105617;29;20473;-73
2022/01/07 01:15:51;;;;;;;7.93;6.45;;;;;;;3.14;100.00;101175.09;10103818;29;20084;-73
2022/01/07 01:20:52;;;;;;;6.82;5.68;;;;;;;3.10;100.00;101171.00;10105575;29;20051;-74
2022/01/07 01:25:52;;;;;;;7.85;5.85;;;;;;;3.14;100.00;101142.97;10087567;29;20460;-73
2022/01/07 01:30:53;;;;;;;6.65;5.10;;;;;;;3.17;100.00;101155.22;10088206;29;20101;-74
2022/01/07 01:35:53;;;;;;;13.23;7.93;;;;;;;3.16;100.00;101158.88;10104785;29;20029;-74
2022/01/07 01:40:54;;;;;;;10.85;5.65;;;;;;;3.20;100.00;101144.25;10104656;29;20450;-75
2022/01/07 01:45:54;;;;;;;13.98;6.70;;;;;;;3.19;100.00;101130.03;10087122;29;20033;-75
2022/01/07 01:50:57;;;;;;;6.55;5.93;;;;;;;3.24;100.00;101127.72;10103019;29;20485;-76
2022/01/07 01:55:58;;;;;;;7.88;6.57;;;;;;;3.30;100.00;101120.97;10104004;29;20080;-75
2022/01/07 02:00:58;;;;;;;10.68;8.70;;;;;;;3.34;100.00;101130.38;10106001;29;20179;-81
2022/01/07 02:05:59;;;;;;;8.65;7.57;;;;;;;3.32;100.00;101119.00;10109409;29;20033;-82
2022/01/07 02:10:59;;;;;;;9.70;7.93;;;;;;;3.33;100.00;101122.50;10107320;29;20045;-81
2022/01/07 02:15:59;;;;;;;9.43;7.07;;;;;;;3.30;100.00;101114.78;10106002;29;20116;-83
2022/01/07 02:21:00;;;;;;;11.65;7.60;;;;;;;3.42;100.00;101117.13;10106816;29;20061;-82
2022/01/07 02:26:00;;;;;;;11.65;7.57;;;;;;;3.30;100.00;101104.06;10103164;29;20061;-82
2022/01/07 02:31:01;;;;;;;11.07;7.43;;;;;;;3.36;100.00;101085.59;10088920;29;20476;-82
2022/01/07 02:36:08;;;;;;;9.32;7.78;;;;;;;3.35;100.00;101091.06;10083454;29;20029;-81
2022/01/07 02:41:09;;;;;;;9.98;7.88;;;;;;;3.49;100.00;101080.75;10118978;29;20033;-82
2022/01/07 02:46:09;;;;;;;9.75;8.45;;;;;;;3.47;100.00;101060.47;10118881;29;20037;-82
2022/01/07 02:51:10;;;;;;;17.73;9.45;;;;;;;3.48;100.00;101060.31;10135058;29;20051;-81
2022/01/07 02:56:11;;;;;;;17.10;9.80;;;;;;;3.51;100.00;101048.50;10132814;29;20063;-81
2022/01/07 03:01:11;;;;;;;13.05;10.95;;;;;;;3.51;100.00;101053.84;10149366;29;20044;-81
2022/01/07 03:06:12;;;;;;;7.32;6.63;;;;;;;3.56;100.00;101067.59;10141496;29;20061;-82
2022/01/07 03:11:12;;;;;;;21.08;10.43;;;;;;;3.57;100.00;101055.91;10131604;29;20029;-81
2022/01/07 03:16:13;;;;;;;11.32;8.77;;;;;;;3.63;100.00;101062.50;10118478;29;20033;-82
2022/01/07 03:21:14;;;;;;;14.32;9.52;;;;;;;3.61;100.00;101040.41;10094567;29;20029;-82
2022/01/07 03:26:15;;;;;;;11.63;7.93;;;;;;;3.61;100.00;101021.66;10082635;29;20397;-82
2022/01/07 03:31:15;;;;;;;8.43;7.60;;;;;;;3.56;100.00;101016.75;10096924;29;20033;-82
2022/01/07 03:36:15;;;;;;;8.32;7.68;;;;;;;3.49;100.00;101011.13;10107314;29;20036;-82
2022/01/07 03:41:16;;;;;;;16.40;9.13;;;;;;;3.60;100.00;101003.88;10112845;29;20063;-82
2022/01/07 03:46:16;;;;;;;8.63;7.28;;;;;;;3.64;100.00;100991.91;10092898;29;20061;-82
2022/01/07 03:51:17;;;;;;;10.75;8.32;;;;;;;3.66;100.00;100984.53;10094826;29;20040;-82
2022/01/07 03:56:17;;;;;;;8.98;8.07;;;;;;;3.65;100.00;100974.84;10107116;29;20061;-81
2022/01/07 04:01:18;;;;;;;15.35;10.02;;;;;;;3.70;100.00;100980.56;10087452;29;20071;-82
2022/01/07 04:06:20;;;;;;;19.73;9.35;;;;;;;3.73;100.00;100977.59;10084931;29;20500;-82
2022/01/07 04:11:20;;;;;;;15.60;10.35;;;;;;;3.79;100.00;100971.63;10097904;29;20044;-81
2022/01/07 04:16:21;;;;;;;10.07;7.63;;;;;;;3.81;100.00;100966.97;10100328;29;20037;-82
2022/01/07 04:21:21;;;;;;;11.43;6.82;;;;;;;3.77;100.00;100973.63;10083155;29;20114;-81
2022/01/07 04:26:22;;;;;;;12.93;9.35;;;;;;;3.79;100.00;100968.94;10099736;29;20131;-81
2022/01/07 04:31:22;;;;;;;10.05;9.05;;;;;;;3.79;100.00;100968.94;10083876;29;20049;-81
2022/01/07 04:36:22;;;;;;;20.73;7.95;;;;;;;3.83;100.00;100969.47;10082221;29;20076;-80
2022/01/07 04:41:23;;;;;;;7.43;6.88;;;;;;;3.89;100.00;100955.47;10080913;29;20041;-82
2022/01/07 04:46:23;;;;;;;8.80;7.72;;;;;;;3.90;100.00;100963.38;10069335;29;20041;-82
2022/01/07 04:51:25;;;;;;;7.68;6.45;;;;;;;4.07;100.00;100952.81;10098495;29;20041;-83
2022/01/07 04:56:25;;;;;;;12.73;7.55;;;;;;;4.15;100.00;100951.06;10098182;29;20061;-82
2022/01/07 05:01:26;;;;;;;8.35;7.30;;;;;;;4.11;100.00;100962.22;10100132;29;20085;-82
2022/01/07 05:11:29;;;;;;;13.13;8.80;;;;;;;4.25;100.00;100953.66;10097966;29;20041;-81
2022/01/07 05:16:30;;;;;;;11.07;8.60;;;;;;;4.30;100.00;100958.53;10066931;29;20041;-82
2022/01/07 05:21:30;;;;;;;9.57;8.48;;;;;;;4.29;100.00;100960.38;10081613;29;20068;-81
2022/01/07 05:26:31;;;;;;;15.80;8.88;;;;;;;4.28;100.00;100952.50;10092776;29;20044;-82
2022/01/07 05:31:31;;;;;;;16.60;9.63;;;;;;;4.25;100.00;100967.06;10089102;29;20033;-82
2022/01/07 05:36:32;;;;;;;9.65;8.00;;;;;;;4.11;100.00;100964.91;10102584;29;20057;-81
2022/01/07 05:41:32;;;;;;;10.18;7.65;;;;;;;4.04;100.00;100964.69;10142526;29;20041;-81
2022/01/07 05:46:33;;;;;;;10.52;9.38;;;;;;;4.06;100.00;100972.56;10131187;29;20470;-81
2022/01/07 05:51:33;;;;;;;13.43;8.70;;;;;;;4.02;100.00;100964.00;10104595;29;20354;-83
2022/01/07 05:56:34;;;;;;;17.88;9.65;;;;;;;4.14;100.00;100975.31;10110733;29;20085;-81
2022/01/07 06:01:34;;;;;;;16.13;10.88;;;;;;;4.24;100.00;100975.22;10111432;29;20081;-81
2022/01/07 06:06:35;;;;;;;19.83;11.13;;;;;;;4.25;100.00;100969.72;10103725;29;20037;-81
2022/01/07 06:11:35;;;;;;;25.25;10.70;;;;;;;4.25;100.00;100976.94;10087500;29;20051;-81
2022/01/07 06:16:37;;;;;;;15.68;11.15;;;;;;;4.13;100.00;100965.59;10088408;29;20057;-82
2022/01/07 06:21:37;;;;;;;17.63;9.07;;;;;;;4.20;100.00;100974.69;10086860;29;20397;-81
2022/01/07 06:26:38;;;;;;;24.40;11.50;;;;;;;4.18;100.00;100949.91;10104326;29;20119;-80
2022/01/07 06:31:38;;;;;;;12.40;11.13;;;;;;;4.11;100.00;100956.84;10086999;29;20128;-80
2022/01/07 06:36:38;;;;;;;10.02;7.85;;;;;;;4.16;100.00;100954.56;10106147;29;20492;-80
2022/01/07 06:41:39;;;;;;;14.65;9.57;;;;;;;4.14;100.00;100960.06;10101918;29;20033;-81
2022/01/07 06:46:39;;;;;;;16.90;9.75;;;;;;;4.12;100.00;100977.31;10116325;29;20037;-82
2022/01/07 06:51:40;;;;;;;11.48;8.93;;;;;;;4.11;100.00;100965.75;10124264;29;20044;-82
2022/01/07 06:56:42;;;;;;;14.40;8.80;;;;;;;4.12;100.00;100966.59;10098796;29;20393;-81
2022/01/07 07:01:43;;;;;;;10.98;7.60;;;;;;;4.06;100.00;100964.53;10070958;29;20056;-81
2022/01/07 07:06:43;;;;;;;10.45;6.72;;;;;;;3.94;100.00;100964.75;10100213;29;20048;-81
2022/01/07 07:11:44;;;;;;;4.88;4.47;;;;;;;3.84;100.00;100958.63;10102109;29;20544;-81
2022/01/07 07:16:44;;;;;;;11.88;7.97;;;;;;;3.85;100.00;100965.66;10102212;29;20457;-81
2022/01/07 07:21:44;;;;;;;8.45;5.85;;;;;;;3.97;100.00;100956.41;10100896;29;20037;-82
2022/01/07 07:26:46;;;;;;;15.20;8.10;;;;;;;3.97;100.00;100944.84;10101205;29;20040;-81
2022/01/07 07:31:50;;;;;;;17.33;8.35;;;;;;;4.02;100.00;100944.38;10070680;29;20367;-81
2022/01/07 07:36:50;;;;;;;8.25;5.40;;;;;;;3.89;100.00;100950.13;10101166;29;20438;-82
2022/01/07 07:41:50;;;;;;;12.23;7.65;;;;;;;3.83;100.00;100951.59;10101871;29;20049;-81
2022/01/07 07:46:51;;;;;;;10.50;6.75;;;;;;;3.75;100.00;100954.19;10100270;29;20033;-81
2022/01/07 07:51:52;;;;;;;17.38;6.88;;;;;;;3.75;100.00;100951.50;10067835;29;20139;-81
2022/01/07 07:56:52;;;;;;;16.67;7.07;;;;;;;3.72;100.00;100954.47;10099231;29;20577;-81
2022/01/07 08:01:52;;;;;;;13.07;7.32;;;;;;;3.73;100.00;100969.56;10101282;29;20057;-81
2022/01/07 08:06:53;;;;;;;20.17;6.65;;;;;;;3.75;100.00;100972.09;10083391;29;20469;-81
2022/01/07 08:12:03;;;;;;;25.42;9.20;;;;;;;3.84;100.00;100976.53;10100644;29;20068;-82
2022/01/07 08:17:04;;;;;;;13.23;5.95;;;;;;;3.85;100.00;100965.66;10119533;29;20056;-81
2022/01/07 08:22:06;;;;;;;10.05;6.40;;;;;;;3.82;100.00;100976.69;10131432;29;20037;-80
2022/01/07 08:27:06;;;;;;;11.27;6.35;;;;;;;3.82;100.00;100968.66;10093771;29;20033;-82
2022/01/07 08:37:27;;;;;;;9.80;6.78;;;;;;;4.30;100.00;100967.41;10100385;29;20049;-82
2022/01/07 08:42:28;;;;;;;10.85;5.80;;;;;;;4.78;100.00;100968.75;10083115;29;20423;-81
2022/01/07 08:47:28;;;;;;;8.60;5.57;;;;;;;5.56;100.00;100959.75;10099244;29;20108;-81
2022/01/07 08:52:28;;;;;;;6.70;4.75;;;;;;;5.43;100.00;100968.25;10100194;29;20041;-82
2022/01/07 08:57:29;;;;;;;21.60;6.90;;;;;;;5.10;100.00;100951.16;10111448;29;20061;-82
2022/01/07 09:02:30;;;;;;;13.95;8.00;;;;;;;5.36;100.00;100951.13;10134148;29;20048;-81
2022/01/07 09:07:30;;;;;;;14.30;5.75;;;;;;;5.55;100.00;100963.41;10110053;29;20041;-81
2022/01/07 09:12:31;;;;;;;10.88;7.07;;;;;;;5.16;100.00;100937.09;10107655;29;20613;-82
2022/01/07 09:17:32;;;;;;;11.98;6.03;;;;;;;5.15;100.00;100961.44;10097745;29;20064;-81
2022/01/07 09:22:33;;;;;;;9.75;5.60;;;;;;;5.19;100.00;100960.09;10101264;29;20068;-82
2022/01/07 09:27:34;;;;;;;14.82;7.38;;;;;;;4.98;100.00;100952.44;10134937;29;20541;-81
2022/01/07 09:32:34;;;;;;;7.85;4.95;;;;;;;4.70;100.00;100955.31;10103497;29;20477;-81
2022/01/07 09:37:35;;;;;;;4.85;4.30;;;;;;;4.66;100.00;100968.19;10079992;29;20068;-80
2022/01/07 09:42:35;;;;;;;8.45;5.55;;;;;;;4.84;100.00;100959.25;10114376;29;20037;-81
2022/01/07 09:47:36;;;;;;;12.13;6.70;;;;;;;4.68;100.00;100946.56;10132049;29;20069;-81
2022/01/07 09:52:39;;;;;;;17.80;5.10;;;;;;;4.62;100.00;100958.75;10139464;29;20021;-81
2022/01/07 09:57:39;;;;;;;3.60;3.30;;;;;;;4.68;100.00;100959.97;10103277;29;20064;-81
2022/01/07 10:03:03;;;;;;;8.45;5.68;;;;;;;4.88;100.00;100952.56;10140861;29;20060;-81
2022/01/07 10:08:23;;;;;;;31.40;9.18;;;;;;;5.39;100.00;100961.50;10127392;29;20045;-81
2022/01/07 10:13:24;;;;;;;12.75;5.95;;;;;;;6.00;100.00;100963.06;10128957;29;20127;-81
2022/01/07 10:18:24;;;;;;;22.95;6.85;;;;;;;5.83;100.00;100954.09;10108833;29;20037;-81
2022/01/07 10:23:24;;;;;;;16.17;5.35;;;;;;;5.81;100.00;100958.81;10110684;29;20037;-82
2022/01/07 10:28:32;;;;;;;17.50;5.57;;;;;;;6.00;100.00;100959.53;10119388;29;20033;-82
2022/01/07 10:33:40;;;;;;;22.90;7.35;;;;;;;7.39;100.00;100952.06;10137391;29;20053;-82
2022/01/07 10:39:01;;;;;;;9.98;5.20;;;;;;;7.40;100.00;100950.19;10107789;29;20043;-81
2022/01/07 10:44:08;;;;;;;13.68;4.85;;;;;;;7.07;100.00;100949.50;10106511;29;20546;-81
2022/01/07 10:49:08;;;;;;;13.55;3.70;;;;;;;7.32;100.00;100950.25;10110521;29;20065;-82
2022/01/07 10:54:10;;;;;;;15.40;3.55;;;;;;;7.19;100.00;100943.56;10144753;29;20100;-80
2022/01/07 10:59:14;;;;;;;11.20;4.82;;;;;;;7.28;100.00;100938.16;10078944;29;20542;-81
2022/01/07 11:04:19;;;;;;;12.48;3.85;;;;;;;6.58;100.00;100944.25;10087562;29;20045;-81
2022/01/07 11:09:20;;;;;;;5.68;2.70;;;;;;;6.33;100.00;100946.94;10101545;29;20047;-81
2022/01/07 11:14:25;;;;;;;15.15;3.22;;;;;;;6.19;100.00;100940.41;10086983;29;20446;-82
2022/01/07 11:19:31;;;;;;;9.48;3.85;;;;;;;5.88;100.00;100958.16;10084780;29;20504;-79
2022/01/07 11:24:35;;;;;;;9.32;3.22;;;;;;;5.82;100.00;100955.09;10069888;29;20080;-81
2022/01/07 11:30:06;;;;;;;5.10;2.92;;;;;;;5.80;100.00;100948.19;10102382;29;20045;-81
2022/01/07 11:35:19;;;;;;;9.40;3.17;;;;;;;5.64;100.00;100938.25;10100256;29;20112;-81
2022/01/07 11:40:28;;;;;;;6.53;2.58;;;;;;;5.43;100.00;100930.66;10101923;29;20041;-81
2022/01/07 11:45:29;;;;;;;8.27;3.08;;;;;;;5.33;100.00;100928.13;10101499;29;20029;-81
2022/01/07 11:50:29;;;;;;;8.32;2.00;;;;;;;5.39;100.00;100929.28;10100823;29;20071;-82
2022/01/07 11:55:33;;;;;;;5.00;2.53;;;;;;;5.55;100.00;100928.50;10100562;29;20553;-81
2022/01/07 12:00:49;;;;;;;6.88;3.78;;;;;;;5.69;100.00;100924.34;10100414;29;20036;-81
2022/01/07 12:05:50;;;;;;;18.02;2.53;;;;;;;5.77;100.00;100925.19;10100086;29;20037;-81
2022/01/07 12:11:08;;;;;;;12.00;4.03;;;;;;;5.74;100.00;100919.31;10083501;29;20048;-81
2022/01/07 12:16:08;;;;;;;14.32;3.30;;;;;;;5.72;100.00;100924.84;10084484;29;20036;-81
2022/01/07 12:21:09;;;;;;;7.55;2.58;;;;;;;5.55;100.00;100934.72;10082728;29;20464;-80
2022/01/07 12:26:09;;;;;;;5.18;2.88;;;;;;;5.43;100.00;100924.47;10099813;29;20064;-81
2022/01/07 12:31:10;;;;;;;7.88;2.67;;;;;;;6.23;100.00;100920.22;10083185;29;20043;-81
2022/01/07 12:36:11;;;;;;;5.25;2.30;;;;;;;6.63;100.00;100896.13;10099127;29;20079;-81
2022/01/07 12:41:11;;;;;;;9.73;2.35;;;;;;;6.31;100.00;100908.59;10098249;29;20040;-80
2022/01/07 12:46:12;;;;;;;12.10;2.85;;;;;;;5.99;100.00;100899.53;10097425;29;20029;-81
2022/01/07 12:51:15;;;;;;;3.88;2.50;;;;;;;5.77;100.00;100892.09;10098464;29;20041;-80
2022/01/07 12:56:25;;;;;;;17.10;4.50;;;;;;;5.72;100.00;100892.63;10098341;29;20057;-80
2022/01/07 13:01:28;;;;;;;3.97;2.53;;;;;;;5.79;100.00;100893.63;10080948;29;20039;-80
2022/01/07 13:06:28;;;;;;;16.05;3.17;;;;;;;5.50;100.00;100893.25;10081617;29;20029;-80
2022/01/07 13:11:30;;;;;;;3.53;2.45;;;;;;;5.08;100.00;100892.28;10096847;29;20052;-80
2022/01/07 13:16:31;;;;;;;3.42;1.70;;;;;;;4.84;100.00;100895.69;10083388;29;20101;-80
2022/01/07 13:21:32;;;;;;;7.00;1.95;;;;;;;4.72;100.00;100891.59;10117820;29;20068;-79
2022/01/07 13:26:36;;;;;;;13.75;2.83;;;;;;;4.78;100.00;100885.59;10103000;29;20041;-80
2022/01/07 13:31:37;;;;;;;5.90;2.65;;;;;;;4.85;100.00;100885.78;10097162;29;20485;-80
2022/01/07 13:36:40;;;;;;;1.95;1.77;;;;;;;5.00;100.00;100883.34;10080937;29;20088;-80
2022/01/07 13:42:00;;;;;;;9.88;2.67;;;;;;;5.06;100.00;100880.84;10082662;29;20082;-80
2022/01/07 13:47:03;;;;;;;8.50;2.83;;;;;;;5.05;100.00;100879.19;10097138;29;20037;-80
2022/01/07 13:52:04;;;;;;;3.08;2.47;;;;;;;5.13;100.00;100887.25;10082076;29;20041;-80
2022/01/07 13:57:08;;;;;;;6.75;2.10;;;;;;;5.11;100.00;100891.13;10097193;29;20049;-79
2022/01/07 14:02:08;;;;;;;3.38;2.50;;;;;;;5.18;100.00;100889.47;10096562;29;20045;-79
2022/01/07 14:07:24;;;;;;;13.65;3.40;;;;;;;5.34;100.00;100894.03;10083061;29;20118;-79
2022/01/07 14:12:24;;;;;;;6.35;3.40;;;;;;;5.56;100.00;100888.06;10117976;29;20465;-80
2022/01/07 14:17:25;;;;;;;4.60;2.78;;;;;;;5.70;100.00;100889.25;10121921;29;20041;-79
2022/01/07 14:22:26;;;;;;;11.18;2.47;;;;;;;5.50;100.00;100877.97;10108044;29;20040;-79
2022/01/07 14:27:31;;;;;;;6.28;1.85;;;;;;;5.12;99.71;100874.84;10102666;29;20203;-80
2022/01/07 14:32:31;;;;;;;6.50;1.75;;;;;;;5.01;100.00;100863.56;10086419;29;20109;-79
2022/01/07 14:37:32;;;;;;;2.42;1.77;;;;;;;4.87;100.00;100873.91;10087122;29;20065;-79
2022/01/07 14:42:32;;;;;;;8.02;3.05;;;;;;;4.85;100.00;100878.59;10103286;29;20093;-79
2022/01/07 14:47:33;;;;;;;6.95;2.30;;;;;;;4.93;100.00;100885.00;10070171;29;20045;-79
2022/01/07 14:52:33;;;;;;;6.55;2.33;;;;;;;4.95;100.00;100880.34;10102709;29;20088;-79
2022/01/07 14:57:34;;;;;;;11.35;3.03;;;;;;;4.96;100.00;100884.69;10103854;29;20526;-79
2022/01/07 15:02:34;;;;;;;7.32;2.67;;;;;;;5.07;100.00;100877.19;10102684;29;20180;-78
2022/01/07 15:07:35;;;;;;;3.45;2.65;;;;;;;5.19;100.00;100892.97;10101769;29;20469;-78
2022/01/07 15:12:39;;;;;;;2.15;2.00;;;;;;;5.16;100.00;100886.09;10101606;29;20048;-78
2022/01/07 15:17:39;;;;;;;5.32;1.20;;;;;;;4.85;100.00;100881.28;10101994;29;20112;-78
2022/01/07 15:22:40;;;;;;;9.02;1.73;;;;;;;4.50;100.00;100884.09;10102821;29;20543;-78
2022/01/07 15:27:40;;;;;;;4.78;1.30;;;;;;;4.18;100.00;100877.53;10084856;29;20057;-78
2022/01/07 15:32:40;;;;;;;3.30;2.22;;;;;;;3.99;100.00;100881.25;10100300;29;20501;-78
2022/01/07 15:37:41;;;;;;;5.97;2.17;;;;;;;4.08;100.00;100877.63;10100252;29;20136;-78
2022/01/07 15:42:42;;;;;;;5.93;1.98;;;;;;;4.16;100.00;100879.53;10083258;29;20540;-78
2022/01/07 15:47:42;;;;;;;1.73;1.55;;;;;;;4.02;100.00;100878.25;10083784;29;20473;-78
2022/01/07 15:52:43;;;;;;;10.73;1.98;;;;;;;3.93;100.00;100882.69;10083796;29;20041;-77
2022/01/07 15:57:43;;;;;;;1.95;1.42;;;;;;;3.69;99.75;100890.50;10095004;29;20094;-77
2022/01/07 16:02:45;;;;;;;3.55;1.92;;;;;;;3.59;100.00;100887.91;10110814;29;20041;-78
2022/01/07 16:07:45;;;;;;;3.05;2.40;;;;;;;3.47;100.00;100898.00;10098224;29;20382;-78
2022/01/07 16:12:45;;;;;;;3.03;2.67;;;;;;;3.37;100.00;100901.75;10099139;29;20049;-77
2022/01/07 16:17:46;;;;;;;6.55;3.53;;;;;;;3.36;100.00;100902.75;10082792;29;20040;-77
2022/01/07 16:22:46;;;;;;;12.25;2.88;;;;;;;3.31;100.00;100913.88;10099558;29;20555;-77
2022/01/07 16:27:47;;;;;;;9.60;3.45;;;;;;;3.49;100.00;100912.06;10098184;29;20124;-77
2022/01/07 16:32:47;;;;;;;4.70;2.55;;;;;;;3.65;100.00;100907.88;10098407;29;20067;-77
2022/01/07 16:37:48;;;;;;;10.48;4.03;;;;;;;3.59;100.00;100908.50;10080863;29;20116;-77
2022/01/07 16:42:49;;;;;;;6.65;3.80;;;;;;;3.45;100.00;100908.03;10081858;29;20041;-77
2022/01/07 16:47:50;;;;;;;12.27;3.75;;;;;;;3.61;100.00;100893.97;10096411;29;20029;-77
2022/01/07 16:52:50;;;;;;;6.07;3.42;;;;;;;3.96;100.00;100900.31;10097875;29;20048;-77
2022/01/07 16:57:51;;;;;;;7.32;3.90;;;;;;;4.06;100.00;100902.91;10065825;29;20053;-77
2022/01/07 17:02:51;;;;;;;6.43;2.83;;;;;;;4.06;100.00;100910.94;10081467;29;20158;-77
2022/01/07 17:07:54;;;;;;;10.13;3.58;;;;;;;4.13;100.00;100903.97;10080963;29;20029;-77
2022/01/07 17:12:55;;;;;;;4.43;3.28;;;;;;;4.08;100.00;100907.09;10097649;29;20037;-77
2022/01/07 17:17:55;;;;;;;10.48;3.85;;;;;;;4.22;100.00;100899.50;10081131;29;20044;-77
2022/01/07 17:22:56;;;;;;;5.78;3.33;;;;;;;4.40;100.00;100889.56;10097475;29;20061;-77
2022/01/07 17:27:57;;;;;;;9.88;3.53;;;;;;;4.39;100.00;100883.38;10082313;29;20066;-77
2022/01/07 17:32:57;;;;;;;5.45;2.80;;;;;;;4.27;100.00;100889.16;10081325;29;20116;-77
2022/01/07 17:37:58;;;;;;;4.22;2.95;;;;;;;4.07;100.00;100886.66;10097272;29;20533;-77
2022/01/07 17:42:58;;;;;;;6.47;3.10;;;;;;;3.91;100.00;100894.56;10097680;29;20120;-77
2022/01/07 17:48:01;;;;;;;10.43;3.17;;;;;;;3.89;100.00;100900.09;10082851;29;20036;-77
2022/01/07 17:53:01;;;;;;;13.70;3.63;;;;;;;4.09;100.00;100899.91;10109762;29;20033;-77
2022/01/07 17:58:02;;;;;;;13.40;3.35;;;;;;;4.22;100.00;100891.47;10091929;29;20093;-76
2022/01/07 18:03:04;;;;;;;11.25;3.28;;;;;;;4.12;100.00;100894.25;10111144;29;20045;-77
2022/01/07 18:08:04;;;;;;;9.85;3.13;;;;;;;3.93;100.00;100900.63;10102610;29;20037;-76
2022/01/07 18:13:05;;;;;;;6.60;2.92;;;;;;;3.84;100.00;100897.03;10089176;29;20041;-76
2022/01/07 18:18:08;;;;;;;7.80;2.70;;;;;;;3.83;100.00;100900.72;10103610;29;20044;-75
2022/01/07 18:23:12;;;;;;;5.30;3.00;;;;;;;3.81;100.00;100912.56;10102268;29;20065;-76
2022/01/07 18:28:12;;;;;;;6.38;3.38;;;;;;;3.75;100.00;100900.63;10104489;29;20036;-76
2022/01/07 18:33:13;;;;;;;10.77;2.70;;;;;;;3.64;99.59;100909.72;10090099;29;20044;-76
2022/01/07 18:38:14;;;;;;;2.75;2.53;;;;;;;3.57;100.00;100905.94;10103261;29;20125;-76
2022/01/07 18:43:15;;;;;;;11.90;3.67;;;;;;;3.77;100.00;100913.88;10102606;29;20061;-76
2022/01/07 18:48:15;;;;;;;19.08;4.20;;;;;;;4.03;100.00;100925.50;10101726;29;20488;-76
2022/01/07 18:53:15;;;;;;;5.38;3.00;;;;;;;4.11;100.00;100901.41;10102204;29;20053;-77
2022/01/07 18:58:16;;;;;;;5.30;2.55;;;;;;;4.05;100.00;100907.44;10100146;29;20080;-76
2022/01/07 19:03:25;;;;;;;6.18;3.05;;;;;;;4.00;100.00;100915.06;10100483;29;20037;-76
2022/01/07 19:08:26;;;;;;;10.65;3.83;;;;;;;3.82;100.00;100916.91;10101203;29;20033;-76
2022/01/07 19:13:27;;;;;;;4.88;2.50;;;;;;;3.61;98.39;100919.91;10100825;29;20112;-76
2022/01/07 19:18:27;;;;;;;8.20;3.42;;;;;;;3.43;98.39;100919.88;10084576;29;20085;-76
2022/01/07 19:23:28;;;;;;;7.35;2.38;;;;;;;3.41;98.66;100911.97;10101609;29;20045;-76
2022/01/07 19:28:29;;;;;;;9.15;3.38;;;;;;;3.40;98.70;100921.00;10100984;29;20037;-76
2022/01/07 19:33:30;;;;;;;6.00;2.45;;;;;;;3.31;98.65;100916.56;10100185;29;20064;-76
2022/01/07 19:38:30;;;;;;;17.92;6.05;;;;;;;3.32;98.59;100920.06;10099443;29;20127;-76
2022/01/07 19:43:31;;;;;;;9.82;3.17;;;;;;;3.25;97.94;100927.84;10100457;29;20033;-76
2022/01/07 19:48:32;;;;;;;20.10;2.97;;;;;;;3.23;98.57;100927.19;10099872;29;20131;-77
2022/01/07 19:53:32;;;;;;;23.77;7.18;;;;;;;3.28;99.17;100935.59;10083245;29;20176;-76
2022/01/07 19:58:33;;;;;;;16.50;6.82;;;;;;;3.32;99.36;100923.63;10082993;29;20410;-76
2022/01/07 20:03:33;;;;;;;6.97;2.97;;;;;;;3.39;99.73;100916.66;10099596;29;20512;-75
2022/01/07 20:08:34;;;;;;;11.60;3.20;;;;;;;3.40;99.30;100921.00;10098879;29;20401;-76
2022/01/07 20:13:34;;;;;;;12.88;3.83;;;;;;;3.35;98.61;100930.47;10098991;29;20124;-76
2022/01/07 20:18:35;;;;;;;4.22;3.08;;;;;;;3.31;98.93;100937.13;10067640;29;20119;-75
2022/01/07 20:23:35;;;;;;;15.30;5.07;;;;;;;3.31;99.01;100935.28;10099812;29;20120;-75
2022/01/07 20:28:36;;;;;;;5.97;2.55;;;;;;;3.30;98.60;100941.66;10098870;29;20430;-76
2022/01/07 20:33:37;;;;;;;8.65;3.42;;;;;;;3.26;99.41;100929.56;10066576;29;20127;-76
2022/01/07 20:38:37;;;;;;;13.70;3.92;;;;;;;3.30;99.08;100938.97;10097993;29;20040;-75
2022/01/07 20:43:37;;;;;;;8.32;3.47;;;;;;;3.26;98.42;100950.97;10098415;29;20045;-76
2022/01/07 20:48:38;;;;;;;6.93;3.20;;;;;;;3.13;97.52;100945.13;10097445;29;20109;-77
2022/01/07 20:53:39;;;;;;;13.55;6.60;;;;;;;3.10;98.17;100937.41;10098425;29;20100;-77
2022/01/07 20:58:39;;;;;;;19.52;4.28;;;;;;;3.05;98.02;100945.00;10081447;29;20049;-78
2022/01/07 21:03:42;;;;;;;4.43;3.28;;;;;;;2.99;97.65;100946.44;10102308;29;20404;-77
2022/01/07 21:08:43;;;;;;;7.45;2.10;;;;;;;2.96;97.98;100955.59;10102232;29;20029;-76
2022/01/07 21:13:44;;;;;;;2.42;2.28;;;;;;;3.03;98.01;100950.50;10082400;29;20041;-77
2022/01/07 21:18:45;;;;;;;5.97;2.97;;;;;;;3.00;98.55;100959.69;10096760;29;20033;-77
2022/01/07 21:23:46;;;;;;;4.07;2.53;;;;;;;3.02;98.65;100957.69;10100327;29;20036;-77
2022/01/07 21:28:47;;;;;;;13.00;4.75;;;;;;;3.11;99.86;100949.78;10106631;29;20084;-77
2022/01/07 21:33:47;;;;;;;3.70;2.03;;;;;;;3.25;100.00;100952.81;10112244;29;20036;-77
2022/01/07 21:38:48;;;;;;;4.03;2.55;;;;;;;3.27;99.91;100960.69;10098758;29;20037;-76
2022/01/07 21:43:49;;;;;;;2.40;2.13;;;;;;;3.20;98.96;100964.94;10110279;29;20549;-77
2022/01/07 21:48:49;;;;;;;7.05;2.17;;;;;;;3.10;98.23;100964.16;10105130;29;20033;-76
2022/01/07 21:53:49;;;;;;;5.35;1.80;;;;;;;3.03;98.45;100971.91;10104766;29;20032;-76
2022/01/07 21:58:50;;;;;;;7.80;2.88;;;;;;;3.01;98.88;100964.03;10104955;29;20425;-76
2022/01/07 22:03:51;;;;;;;3.03;2.72;;;;;;;3.11;100.00;100972.00;10088840;29;20492;-76
2022/01/07 22:08:51;;;;;;;3.15;2.50;;;;;;;3.21;100.00;100985.34;10087384;29;20064;-76
2022/01/07 22:13:56;;;;;;;12.13;2.90;;;;;;;3.25;100.00;100976.91;10103792;29;20037;-77
2022/01/07 22:18:57;;;;;;;7.28;2.83;;;;;;;3.49;100.00;100991.56;10103016;29;20037;-78
2022/01/07 22:23:57;;;;;;;3.75;2.30;;;;;;;3.71;100.00;100984.94;10103884;29;20097;-77
2022/01/07 22:28:58;;;;;;;10.85;1.95;;;;;;;3.71;100.00;100993.81;10101821;29;20116;-77
2022/01/07 22:33:58;;;;;;;5.88;2.72;;;;;;;3.69;100.00;100992.28;10102271;29;20062;-77
2022/01/07 22:38:59;;;;;;;6.55;3.55;;;;;;;3.64;100.00;100989.22;10102989;29;20040;-77
2022/01/07 22:43:59;;;;;;;7.07;3.08;;;;;;;3.55;100.00;100987.44;10102732;29;20041;-77
2022/01/07 22:49:00;;;;;;;3.88;1.77;;;;;;;3.33;99.09;100989.53;10101169;29;20501;-77
2022/01/07 22:54:00;;;;;;;11.00;2.78;;;;;;;3.09;97.49;100989.19;10102916;29;20045;-77
2022/01/07 22:59:00;;;;;;;4.20;3.05;;;;;;;2.91;97.63;100995.31;10085533;29;20053;-77
2022/01/07 23:04:01;;;;;;;9.60;2.95;;;;;;;2.87;97.46;100993.94;10100770;29;20481;-77
2022/01/07 23:09:01;;;;;;;11.02;4.35;;;;;;;2.83;97.32;101003.22;10101623;29;20067;-77